sensor_id;sensor_type;location;lat;lon;timestamp;P1;durP1;ratioP1;P2;durP2;ratioP2
76417;SDS011;65250;47.602;19.002;2023-04-24T00:01:22;6.55;;;5.30;;
76417;SDS011;65250;47.602;19.002;2023-04-24T00:03:49;7.80;;;4.70;;
76417;SDS011;65250;47.602;19.002;2023-04-24T00:06:16;6.88;;;4.85;;
76417;SDS011;65250;47.602;19.002;2023-04-24T00:08:43;6.93;;;5.13;;
76417;SDS011;65250;47.602;19.002;2023-04-24T00:11:10;11.07;;;5.50;;
76417;SDS011;65250;47.602;19.002;2023-04-24T00:13:37;8.18;;;4.80;;
76417;SDS011;65250;47.602;19.002;2023-04-24T00:16:04;7.78;;;4.70;;
76417;SDS011;65250;47.602;19.002;2023-04-24T00:18:32;10.70;;;5.28;;
76417;SDS011;65250;47.602;19.002;2023-04-24T00:20:59;9.37;;;5.23;;
76417;SDS011;65250;47.602;19.002;2023-04-24T00:23:26;7.35;;;5.40;;
76417;SDS011;65250;47.602;19.002;2023-04-24T00:25:53;8.57;;;5.30;;
76417;SDS011;65250;47.602;19.002;2023-04-24T00:28:19;11.07;;;6.28;;
76417;SDS011;65250;47.602;19.002;2023-04-24T00:30:46;5.90;;;4.35;;
76417;SDS011;65250;47.602;19.002;2023-04-24T00:33:13;7.23;;;4.97;;
76417;SDS011;65250;47.602;19.002;2023-04-24T00:35:40;8.82;;;5.53;;
76417;SDS011;65250;47.602;19.002;2023-04-24T00:38:07;7.82;;;4.65;;
76417;SDS011;65250;47.602;19.002;2023-04-24T00:40:33;7.00;;;4.47;;
76417;SDS011;65250;47.602;19.002;2023-04-24T00:43:01;7.10;;;4.78;;
76417;SDS011;65250;47.602;19.002;2023-04-24T00:45:27;8.00;;;5.00;;
76417;SDS011;65250;47.602;19.002;2023-04-24T00:47:54;10.35;;;5.07;;
76417;SDS011;65250;47.602;19.002;2023-04-24T00:50:21;6.78;;;4.70;;
76417;SDS011;65250;47.602;19.002;2023-04-24T00:52:48;6.78;;;4.82;;
76417;SDS011;65250;47.602;19.002;2023-04-24T00:55:15;6.57;;;4.60;;
76417;SDS011;65250;47.602;19.002;2023-04-24T00:57:42;6.63;;;5.47;;
76417;SDS011;65250;47.602;19.002;2023-04-24T01:00:10;8.32;;;4.93;;
76417;SDS011;65250;47.602;19.002;2023-04-24T01:02:41;10.00;;;4.85;;
76417;SDS011;65250;47.602;19.002;2023-04-24T01:05:14;8.57;;;5.30;;
76417;SDS011;65250;47.602;19.002;2023-04-24T01:07:41;7.13;;;5.13;;
76417;SDS011;65250;47.602;19.002;2023-04-24T01:10:12;9.23;;;5.13;;
76417;SDS011;65250;47.602;19.002;2023-04-24T01:12:39;6.97;;;5.45;;
76417;SDS011;65250;47.602;19.002;2023-04-24T01:15:06;6.20;;;4.82;;
76417;SDS011;65250;47.602;19.002;2023-04-24T01:17:34;7.22;;;5.15;;
76417;SDS011;65250;47.602;19.002;2023-04-24T01:20:01;7.30;;;4.90;;
76417;SDS011;65250;47.602;19.002;2023-04-24T01:22:34;10.33;;;5.33;;
76417;SDS011;65250;47.602;19.002;2023-04-24T01:25:02;11.18;;;5.80;;
76417;SDS011;65250;47.602;19.002;2023-04-24T01:27:29;5.88;;;4.63;;
76417;SDS011;65250;47.602;19.002;2023-04-24T01:29:56;8.82;;;5.35;;
76417;SDS011;65250;47.602;19.002;2023-04-24T01:32:23;9.05;;;5.25;;
76417;SDS011;65250;47.602;19.002;2023-04-24T01:34:50;6.77;;;5.27;;
76417;SDS011;65250;47.602;19.002;2023-04-24T01:37:17;9.75;;;4.95;;
76417;SDS011;65250;47.602;19.002;2023-04-24T01:39:44;8.23;;;4.90;;
76417;SDS011;65250;47.602;19.002;2023-04-24T01:42:12;7.47;;;5.07;;
76417;SDS011;65250;47.602;19.002;2023-04-24T01:44:39;9.88;;;5.70;;
76417;SDS011;65250;47.602;19.002;2023-04-24T01:47:06;10.30;;;5.30;;
76417;SDS011;65250;47.602;19.002;2023-04-24T01:49:33;10.88;;;5.47;;
76417;SDS011;65250;47.602;19.002;2023-04-24T01:51:59;10.27;;;6.28;;
76417;SDS011;65250;47.602;19.002;2023-04-24T01:54:27;7.57;;;6.50;;
76417;SDS011;65250;47.602;19.002;2023-04-24T01:56:53;8.07;;;6.60;;
76417;SDS011;65250;47.602;19.002;2023-04-24T01:59:20;8.63;;;6.47;;
76417;SDS011;65250;47.602;19.002;2023-04-24T02:01:48;8.65;;;6.22;;
76417;SDS011;65250;47.602;19.002;2023-04-24T02:04:14;11.32;;;6.25;;
76417;SDS011;65250;47.602;19.002;2023-04-24T02:06:41;8.45;;;6.57;;
76417;SDS011;65250;47.602;19.002;2023-04-24T02:09:08;11.80;;;7.32;;
76417;SDS011;65250;47.602;19.002;2023-04-24T02:11:35;9.33;;;7.03;;
76417;SDS011;65250;47.602;19.002;2023-04-24T02:14:02;9.27;;;6.47;;
76417;SDS011;65250;47.602;19.002;2023-04-24T02:16:29;8.32;;;6.20;;
76417;SDS011;65250;47.602;19.002;2023-04-24T02:18:58;9.30;;;6.57;;
76417;SDS011;65250;47.602;19.002;2023-04-24T02:21:25;11.30;;;6.63;;
76417;SDS011;65250;47.602;19.002;2023-04-24T02:23:53;8.27;;;6.73;;
76417;SDS011;65250;47.602;19.002;2023-04-24T02:26:20;10.48;;;6.93;;
76417;SDS011;65250;47.602;19.002;2023-04-24T02:28:47;8.52;;;7.10;;
76417;SDS011;65250;47.602;19.002;2023-04-24T02:31:14;11.68;;;7.40;;
76417;SDS011;65250;47.602;19.002;2023-04-24T02:33:41;10.88;;;6.90;;
76417;SDS011;65250;47.602;19.002;2023-04-24T02:36:08;8.00;;;5.90;;
76417;SDS011;65250;47.602;19.002;2023-04-24T02:38:34;9.00;;;6.30;;
76417;SDS011;65250;47.602;19.002;2023-04-24T02:41:01;9.85;;;6.60;;
76417;SDS011;65250;47.602;19.002;2023-04-24T02:43:29;8.48;;;6.82;;
76417;SDS011;65250;47.602;19.002;2023-04-24T02:45:56;7.43;;;6.03;;
76417;SDS011;65250;47.602;19.002;2023-04-24T02:48:22;8.43;;;6.50;;
76417;SDS011;65250;47.602;19.002;2023-04-24T02:50:50;7.68;;;6.07;;
76417;SDS011;65250;47.602;19.002;2023-04-24T02:53:17;10.40;;;6.20;;
76417;SDS011;65250;47.602;19.002;2023-04-24T02:55:43;9.73;;;6.20;;
76417;SDS011;65250;47.602;19.002;2023-04-24T02:58:11;8.70;;;5.85;;
76417;SDS011;65250;47.602;19.002;2023-04-24T03:00:39;7.77;;;5.73;;
76417;SDS011;65250;47.602;19.002;2023-04-24T03:03:06;8.48;;;6.20;;
76417;SDS011;65250;47.602;19.002;2023-04-24T03:05:33;9.98;;;6.35;;
76417;SDS011;65250;47.602;19.002;2023-04-24T03:08:00;8.75;;;6.40;;
76417;SDS011;65250;47.602;19.002;2023-04-24T03:10:27;8.90;;;6.22;;
76417;SDS011;65250;47.602;19.002;2023-04-24T03:12:54;6.67;;;5.93;;
76417;SDS011;65250;47.602;19.002;2023-04-24T03:15:21;8.75;;;6.43;;
76417;SDS011;65250;47.602;19.002;2023-04-24T03:17:48;10.60;;;6.35;;
76417;SDS011;65250;47.602;19.002;2023-04-24T03:20:15;6.70;;;5.82;;
76417;SDS011;65250;47.602;19.002;2023-04-24T03:22:42;9.65;;;6.20;;
76417;SDS011;65250;47.602;19.002;2023-04-24T03:25:09;9.00;;;6.33;;
76417;SDS011;65250;47.602;19.002;2023-04-24T03:27:36;7.38;;;6.57;;
76417;SDS011;65250;47.602;19.002;2023-04-24T03:30:03;8.73;;;7.50;;
76417;SDS011;65250;47.602;19.002;2023-04-24T03:32:30;9.30;;;6.53;;
76417;SDS011;65250;47.602;19.002;2023-04-24T03:34:58;8.88;;;6.20;;
76417;SDS011;65250;47.602;19.002;2023-04-24T03:37:25;8.13;;;6.47;;
76417;SDS011;65250;47.602;19.002;2023-04-24T03:39:52;8.60;;;6.38;;
76417;SDS011;65250;47.602;19.002;2023-04-24T03:42:19;8.73;;;5.97;;
76417;SDS011;65250;47.602;19.002;2023-04-24T03:44:46;11.07;;;6.20;;
76417;SDS011;65250;47.602;19.002;2023-04-24T03:47:13;10.82;;;5.80;;
76417;SDS011;65250;47.602;19.002;2023-04-24T03:49:40;8.27;;;6.13;;
76417;SDS011;65250;47.602;19.002;2023-04-24T03:52:06;7.80;;;6.40;;
76417;SDS011;65250;47.602;19.002;2023-04-24T03:54:33;9.32;;;6.72;;
76417;SDS011;65250;47.602;19.002;2023-04-24T03:57:00;9.32;;;6.10;;
76417;SDS011;65250;47.602;19.002;2023-04-24T03:59:27;8.18;;;5.78;;
76417;SDS011;65250;47.602;19.002;2023-04-24T04:01:54;9.07;;;5.87;;
76417;SDS011;65250;47.602;19.002;2023-04-24T04:04:21;8.73;;;5.80;;
76417;SDS011;65250;47.602;19.002;2023-04-24T04:06:48;9.48;;;6.10;;
76417;SDS011;65250;47.602;19.002;2023-04-24T04:09:15;8.40;;;5.25;;
76417;SDS011;65250;47.602;19.002;2023-04-24T04:11:42;8.77;;;6.13;;
76417;SDS011;65250;47.602;19.002;2023-04-24T04:14:08;9.30;;;5.87;;
76417;SDS011;65250;47.602;19.002;2023-04-24T04:16:35;8.75;;;5.95;;
76417;SDS011;65250;47.602;19.002;2023-04-24T04:19:02;8.93;;;5.78;;
76417;SDS011;65250;47.602;19.002;2023-04-24T04:21:29;7.63;;;6.32;;
76417;SDS011;65250;47.602;19.002;2023-04-24T04:23:57;10.30;;;5.50;;
76417;SDS011;65250;47.602;19.002;2023-04-24T04:26:24;9.43;;;5.80;;
76417;SDS011;65250;47.602;19.002;2023-04-24T04:28:52;11.30;;;5.80;;
76417;SDS011;65250;47.602;19.002;2023-04-24T04:31:19;10.30;;;5.70;;
76417;SDS011;65250;47.602;19.002;2023-04-24T04:33:47;7.57;;;5.63;;
76417;SDS011;65250;47.602;19.002;2023-04-24T04:36:14;7.65;;;5.95;;
76417;SDS011;65250;47.602;19.002;2023-04-24T04:38:41;7.70;;;5.83;;
76417;SDS011;65250;47.602;19.002;2023-04-24T04:41:09;8.98;;;6.30;;
76417;SDS011;65250;47.602;19.002;2023-04-24T04:43:36;8.48;;;6.35;;
76417;SDS011;65250;47.602;19.002;2023-04-24T04:46:04;10.63;;;6.30;;
76417;SDS011;65250;47.602;19.002;2023-04-24T04:48:31;11.18;;;5.72;;
76417;SDS011;65250;47.602;19.002;2023-04-24T04:50:58;8.30;;;5.83;;
76417;SDS011;65250;47.602;19.002;2023-04-24T04:53:25;9.95;;;6.65;;
76417;SDS011;65250;47.602;19.002;2023-04-24T04:55:52;8.43;;;6.70;;
76417;SDS011;65250;47.602;19.002;2023-04-24T04:58:19;6.88;;;5.50;;
76417;SDS011;65250;47.602;19.002;2023-04-24T05:00:46;8.23;;;6.03;;
76417;SDS011;65250;47.602;19.002;2023-04-24T05:03:13;6.90;;;5.27;;
76417;SDS011;65250;47.602;19.002;2023-04-24T05:05:44;10.07;;;5.28;;
76417;SDS011;65250;47.602;19.002;2023-04-24T05:08:11;9.35;;;5.95;;
76417;SDS011;65250;47.602;19.002;2023-04-24T05:10:52;6.68;;;5.93;;
76417;SDS011;65250;47.602;19.002;2023-04-24T05:13:19;10.50;;;6.03;;
76417;SDS011;65250;47.602;19.002;2023-04-24T05:15:57;7.47;;;6.03;;
76417;SDS011;65250;47.602;19.002;2023-04-24T05:18:24;8.98;;;6.60;;
76417;SDS011;65250;47.602;19.002;2023-04-24T05:20:51;8.65;;;6.13;;
76417;SDS011;65250;47.602;19.002;2023-04-24T05:23:18;9.15;;;6.10;;
76417;SDS011;65250;47.602;19.002;2023-04-24T05:25:45;7.28;;;5.93;;
76417;SDS011;65250;47.602;19.002;2023-04-24T05:28:12;7.33;;;6.20;;
76417;SDS011;65250;47.602;19.002;2023-04-24T05:30:39;9.75;;;7.00;;
76417;SDS011;65250;47.602;19.002;2023-04-24T05:33:06;9.32;;;6.68;;
76417;SDS011;65250;47.602;19.002;2023-04-24T05:35:33;8.98;;;6.10;;
76417;SDS011;65250;47.602;19.002;2023-04-24T05:38:00;9.30;;;6.10;;
76417;SDS011;65250;47.602;19.002;2023-04-24T05:40:27;7.43;;;6.63;;
76417;SDS011;65250;47.602;19.002;2023-04-24T05:42:53;8.43;;;6.60;;
76417;SDS011;65250;47.602;19.002;2023-04-24T05:45:20;7.30;;;6.53;;
76417;SDS011;65250;47.602;19.002;2023-04-24T05:47:47;68.50;;;17.33;;
76417;SDS011;65250;47.602;19.002;2023-04-24T05:50:14;39.45;;;11.77;;
76417;SDS011;65250;47.602;19.002;2023-04-24T05:52:41;11.37;;;6.63;;
76417;SDS011;65250;47.602;19.002;2023-04-24T05:55:08;10.93;;;6.68;;
76417;SDS011;65250;47.602;19.002;2023-04-24T05:57:34;10.20;;;7.80;;
76417;SDS011;65250;47.602;19.002;2023-04-24T06:00:01;14.90;;;7.00;;
76417;SDS011;65250;47.602;19.002;2023-04-24T06:02:31;10.82;;;7.13;;
76417;SDS011;65250;47.602;19.002;2023-04-24T06:04:59;10.13;;;7.00;;
76417;SDS011;65250;47.602;19.002;2023-04-24T06:07:26;8.10;;;7.30;;
76417;SDS011;65250;47.602;19.002;2023-04-24T06:09:53;8.93;;;7.35;;
76417;SDS011;65250;47.602;19.002;2023-04-24T06:12:20;11.18;;;7.88;;
76417;SDS011;65250;47.602;19.002;2023-04-24T06:14:46;12.40;;;7.68;;
76417;SDS011;65250;47.602;19.002;2023-04-24T06:17:13;14.93;;;7.57;;
76417;SDS011;65250;47.602;19.002;2023-04-24T06:19:42;11.48;;;7.38;;
76417;SDS011;65250;47.602;19.002;2023-04-24T06:22:09;11.18;;;7.47;;
76417;SDS011;65250;47.602;19.002;2023-04-24T06:24:37;9.68;;;7.57;;
76417;SDS011;65250;47.602;19.002;2023-04-24T06:27:03;12.52;;;7.82;;
76417;SDS011;65250;47.602;19.002;2023-04-24T06:29:30;10.23;;;7.90;;
76417;SDS011;65250;47.602;19.002;2023-04-24T06:31:57;10.65;;;8.30;;
76417;SDS011;65250;47.602;19.002;2023-04-24T06:34:25;9.38;;;8.05;;
76417;SDS011;65250;47.602;19.002;2023-04-24T06:36:51;10.88;;;8.93;;
76417;SDS011;65250;47.602;19.002;2023-04-24T06:39:18;10.63;;;7.65;;
76417;SDS011;65250;47.602;19.002;2023-04-24T06:41:45;10.63;;;8.17;;
76417;SDS011;65250;47.602;19.002;2023-04-24T06:44:12;11.10;;;7.75;;
76417;SDS011;65250;47.602;19.002;2023-04-24T06:46:42;11.65;;;8.57;;
76417;SDS011;65250;47.602;19.002;2023-04-24T06:49:10;9.27;;;8.13;;
76417;SDS011;65250;47.602;19.002;2023-04-24T06:51:37;15.23;;;8.60;;
76417;SDS011;65250;47.602;19.002;2023-04-24T06:54:05;11.70;;;8.30;;
76417;SDS011;65250;47.602;19.002;2023-04-24T06:56:32;14.98;;;7.82;;
76417;SDS011;65250;47.602;19.002;2023-04-24T06:59:00;11.63;;;8.32;;
76417;SDS011;65250;47.602;19.002;2023-04-24T07:01:27;11.18;;;8.25;;
76417;SDS011;65250;47.602;19.002;2023-04-24T07:03:54;11.15;;;8.18;;
76417;SDS011;65250;47.602;19.002;2023-04-24T07:06:21;9.90;;;8.27;;
76417;SDS011;65250;47.602;19.002;2023-04-24T07:08:50;13.02;;;8.52;;
76417;SDS011;65250;47.602;19.002;2023-04-24T07:11:17;13.65;;;8.50;;
76417;SDS011;65250;47.602;19.002;2023-04-24T07:13:44;13.20;;;8.43;;
76417;SDS011;65250;47.602;19.002;2023-04-24T07:16:11;12.25;;;8.70;;
76417;SDS011;65250;47.602;19.002;2023-04-24T07:18:38;13.77;;;8.53;;
76417;SDS011;65250;47.602;19.002;2023-04-24T07:21:06;10.35;;;8.32;;
76417;SDS011;65250;47.602;19.002;2023-04-24T07:23:33;17.48;;;9.02;;
76417;SDS011;65250;47.602;19.002;2023-04-24T07:26:00;10.10;;;8.57;;
76417;SDS011;65250;47.602;19.002;2023-04-24T07:28:27;10.80;;;8.80;;
76417;SDS011;65250;47.602;19.002;2023-04-24T07:30:58;11.20;;;8.10;;
76417;SDS011;65250;47.602;19.002;2023-04-24T07:33:26;12.77;;;9.38;;
76417;SDS011;65250;47.602;19.002;2023-04-24T07:35:53;11.93;;;7.18;;
76417;SDS011;65250;47.602;19.002;2023-04-24T07:38:20;11.02;;;6.97;;
76417;SDS011;65250;47.602;19.002;2023-04-24T07:40:48;13.63;;;7.68;;
76417;SDS011;65250;47.602;19.002;2023-04-24T07:43:15;12.00;;;7.97;;
76417;SDS011;65250;47.602;19.002;2023-04-24T07:45:42;10.52;;;7.88;;
76417;SDS011;65250;47.602;19.002;2023-04-24T07:48:09;15.63;;;7.85;;
76417;SDS011;65250;47.602;19.002;2023-04-24T07:50:36;11.23;;;8.00;;
76417;SDS011;65250;47.602;19.002;2023-04-24T07:53:03;9.90;;;8.02;;
76417;SDS011;65250;47.602;19.002;2023-04-24T07:55:30;9.40;;;8.03;;
76417;SDS011;65250;47.602;19.002;2023-04-24T07:57:57;11.90;;;7.53;;
76417;SDS011;65250;47.602;19.002;2023-04-24T08:00:24;12.43;;;8.30;;
76417;SDS011;65250;47.602;19.002;2023-04-24T08:02:51;11.30;;;7.47;;
76417;SDS011;65250;47.602;19.002;2023-04-24T08:05:18;10.73;;;7.90;;
76417;SDS011;65250;47.602;19.002;2023-04-24T08:07:48;9.93;;;7.33;;
76417;SDS011;65250;47.602;19.002;2023-04-24T08:10:16;10.90;;;8.10;;
76417;SDS011;65250;47.602;19.002;2023-04-24T08:12:43;10.50;;;7.68;;
76417;SDS011;65250;47.602;19.002;2023-04-24T08:15:10;8.55;;;7.50;;
76417;SDS011;65250;47.602;19.002;2023-04-24T08:17:37;11.13;;;7.32;;
76417;SDS011;65250;47.602;19.002;2023-04-24T08:20:04;11.37;;;8.57;;
76417;SDS011;65250;47.602;19.002;2023-04-24T08:22:31;9.25;;;7.97;;
76417;SDS011;65250;47.602;19.002;2023-04-24T08:24:59;14.43;;;8.13;;
76417;SDS011;65250;47.602;19.002;2023-04-24T08:27:27;14.02;;;7.32;;
76417;SDS011;65250;47.602;19.002;2023-04-24T08:29:54;12.68;;;8.15;;
76417;SDS011;65250;47.602;19.002;2023-04-24T08:32:20;10.83;;;7.50;;
76417;SDS011;65250;47.602;19.002;2023-04-24T08:34:47;11.05;;;7.78;;
76417;SDS011;65250;47.602;19.002;2023-04-24T08:37:16;9.52;;;7.80;;
76417;SDS011;65250;47.602;19.002;2023-04-24T08:39:43;12.60;;;7.82;;
76417;SDS011;65250;47.602;19.002;2023-04-24T08:42:10;11.88;;;7.43;;
76417;SDS011;65250;47.602;19.002;2023-04-24T08:44:38;9.77;;;7.67;;
76417;SDS011;65250;47.602;19.002;2023-04-24T08:47:05;8.48;;;7.60;;
76417;SDS011;65250;47.602;19.002;2023-04-24T08:49:33;11.18;;;7.70;;
76417;SDS011;65250;47.602;19.002;2023-04-24T08:52:02;9.48;;;7.90;;
76417;SDS011;65250;47.602;19.002;2023-04-24T08:54:35;9.98;;;7.72;;
76417;SDS011;65250;47.602;19.002;2023-04-24T08:57:02;10.40;;;7.23;;
76417;SDS011;65250;47.602;19.002;2023-04-24T08:59:30;9.32;;;6.97;;
76417;SDS011;65250;47.602;19.002;2023-04-24T09:01:57;9.00;;;7.15;;
76417;SDS011;65250;47.602;19.002;2023-04-24T09:04:24;12.20;;;7.05;;
76417;SDS011;65250;47.602;19.002;2023-04-24T09:06:55;11.05;;;6.63;;
76417;SDS011;65250;47.602;19.002;2023-04-24T09:09:24;9.87;;;6.73;;
76417;SDS011;65250;47.602;19.002;2023-04-24T09:11:51;9.70;;;6.60;;
76417;SDS011;65250;47.602;19.002;2023-04-24T09:14:21;8.63;;;7.35;;
76417;SDS011;65250;47.602;19.002;2023-04-24T09:16:50;8.60;;;7.05;;
76417;SDS011;65250;47.602;19.002;2023-04-24T09:19:17;8.73;;;6.60;;
76417;SDS011;65250;47.602;19.002;2023-04-24T09:21:47;9.83;;;6.37;;
76417;SDS011;65250;47.602;19.002;2023-04-24T09:24:15;7.95;;;6.75;;
76417;SDS011;65250;47.602;19.002;2023-04-24T09:26:44;10.73;;;7.95;;
76417;SDS011;65250;47.602;19.002;2023-04-24T09:29:15;9.63;;;6.55;;
76417;SDS011;65250;47.602;19.002;2023-04-24T09:31:43;8.20;;;6.65;;
76417;SDS011;65250;47.602;19.002;2023-04-24T09:34:11;17.33;;;10.10;;
76417;SDS011;65250;47.602;19.002;2023-04-24T09:36:39;9.10;;;7.00;;
76417;SDS011;65250;47.602;19.002;2023-04-24T09:39:10;10.27;;;6.43;;
76417;SDS011;65250;47.602;19.002;2023-04-24T09:41:54;9.38;;;6.78;;
76417;SDS011;65250;47.602;19.002;2023-04-24T09:44:24;8.07;;;6.38;;
76417;SDS011;65250;47.602;19.002;2023-04-24T09:46:53;7.27;;;5.97;;
76417;SDS011;65250;47.602;19.002;2023-04-24T09:49:29;11.18;;;6.35;;
76417;SDS011;65250;47.602;19.002;2023-04-24T09:52:06;9.25;;;6.00;;
76417;SDS011;65250;47.602;19.002;2023-04-24T09:54:34;9.18;;;5.93;;
76417;SDS011;65250;47.602;19.002;2023-04-24T09:57:03;8.55;;;5.80;;
76417;SDS011;65250;47.602;19.002;2023-04-24T09:59:30;7.60;;;5.47;;
76417;SDS011;65250;47.602;19.002;2023-04-24T10:01:57;6.50;;;5.25;;
76417;SDS011;65250;47.602;19.002;2023-04-24T10:04:26;8.57;;;5.30;;
76417;SDS011;65250;47.602;19.002;2023-04-24T10:06:56;9.38;;;5.75;;
76417;SDS011;65250;47.602;19.002;2023-04-24T10:09:24;6.97;;;6.18;;
76417;SDS011;65250;47.602;19.002;2023-04-24T10:11:52;8.87;;;5.80;;
76417;SDS011;65250;47.602;19.002;2023-04-24T10:14:23;7.63;;;6.10;;
76417;SDS011;65250;47.602;19.002;2023-04-24T10:16:52;11.15;;;7.65;;
76417;SDS011;65250;47.602;19.002;2023-04-24T10:19:20;8.80;;;7.07;;
76417;SDS011;65250;47.602;19.002;2023-04-24T10:21:47;8.90;;;8.00;;
76417;SDS011;65250;47.602;19.002;2023-04-24T10:24:15;10.07;;;7.50;;
76417;SDS011;65250;47.602;19.002;2023-04-24T10:26:43;7.57;;;6.75;;
76417;SDS011;65250;47.602;19.002;2023-04-24T10:29:11;9.60;;;7.05;;
76417;SDS011;65250;47.602;19.002;2023-04-24T10:31:39;9.50;;;7.03;;
76417;SDS011;65250;47.602;19.002;2023-04-24T10:34:07;9.00;;;7.50;;
76417;SDS011;65250;47.602;19.002;2023-04-24T10:36:35;8.80;;;7.90;;
76417;SDS011;65250;47.602;19.002;2023-04-24T10:39:06;14.57;;;7.40;;
76417;SDS011;65250;47.602;19.002;2023-04-24T10:41:36;9.45;;;7.20;;
76417;SDS011;65250;47.602;19.002;2023-04-24T10:46:32;8.10;;;6.55;;
76417;SDS011;65250;47.602;19.002;2023-04-24T10:48:59;12.73;;;7.07;;
76417;SDS011;65250;47.602;19.002;2023-04-24T10:51:42;8.63;;;6.85;;
76417;SDS011;65250;47.602;19.002;2023-04-24T10:54:29;9.38;;;7.07;;
76417;SDS011;65250;47.602;19.002;2023-04-24T11:00:10;11.20;;;6.85;;
76417;SDS011;65250;47.602;19.002;2023-04-24T11:02:40;8.73;;;7.30;;
76417;SDS011;65250;47.602;19.002;2023-04-24T11:05:15;8.75;;;6.80;;
76417;SDS011;65250;47.602;19.002;2023-04-24T11:18:51;13.77;;;6.75;;
76417;SDS011;65250;47.602;19.002;2023-04-24T11:21:21;15.18;;;6.93;;
76417;SDS011;65250;47.602;19.002;2023-04-24T11:23:48;10.20;;;7.32;;
76417;SDS011;65250;47.602;19.002;2023-04-24T11:26:17;19.50;;;7.68;;
76417;SDS011;65250;47.602;19.002;2023-04-24T11:28:49;8.73;;;7.10;;
76417;SDS011;65250;47.602;19.002;2023-04-24T11:31:36;22.77;;;7.30;;
76417;SDS011;65250;47.602;19.002;2023-04-24T11:34:08;10.68;;;6.57;;
76417;SDS011;65250;47.602;19.002;2023-04-24T11:36:36;11.13;;;7.13;;
76417;SDS011;65250;47.602;19.002;2023-04-24T11:39:03;16.17;;;7.00;;
76417;SDS011;65250;47.602;19.002;2023-04-24T11:41:30;8.93;;;6.97;;
76417;SDS011;65250;47.602;19.002;2023-04-24T11:43:58;11.50;;;7.55;;
76417;SDS011;65250;47.602;19.002;2023-04-24T11:46:29;8.52;;;7.55;;
76417;SDS011;65250;47.602;19.002;2023-04-24T11:48:56;10.90;;;7.40;;
76417;SDS011;65250;47.602;19.002;2023-04-24T11:51:24;17.40;;;7.68;;
76417;SDS011;65250;47.602;19.002;2023-04-24T11:54:01;15.10;;;7.57;;
76417;SDS011;65250;47.602;19.002;2023-04-24T11:56:30;11.57;;;7.75;;
76417;SDS011;65250;47.602;19.002;2023-04-24T11:58:57;11.23;;;7.78;;
76417;SDS011;65250;47.602;19.002;2023-04-24T12:01:23;15.80;;;7.30;;
76417;SDS011;65250;47.602;19.002;2023-04-24T12:03:51;13.60;;;7.72;;
76417;SDS011;65250;47.602;19.002;2023-04-24T12:06:26;13.37;;;7.63;;
76417;SDS011;65250;47.602;19.002;2023-04-24T12:08:54;14.05;;;8.23;;
76417;SDS011;65250;47.602;19.002;2023-04-24T12:11:29;12.40;;;7.40;;
76417;SDS011;65250;47.602;19.002;2023-04-24T12:13:56;10.30;;;8.25;;
76417;SDS011;65250;47.602;19.002;2023-04-24T12:16:24;12.63;;;7.85;;
76417;SDS011;65250;47.602;19.002;2023-04-24T12:18:52;13.17;;;8.10;;
76417;SDS011;65250;47.602;19.002;2023-04-24T12:21:21;13.60;;;7.82;;
76417;SDS011;65250;47.602;19.002;2023-04-24T12:23:49;20.65;;;7.38;;
76417;SDS011;65250;47.602;19.002;2023-04-24T12:26:17;11.50;;;6.90;;
76417;SDS011;65250;47.602;19.002;2023-04-24T12:28:48;9.88;;;6.72;;
76417;SDS011;65250;47.602;19.002;2023-04-24T12:31:16;9.87;;;6.83;;
76417;SDS011;65250;47.602;19.002;2023-04-24T12:33:43;9.90;;;6.80;;
76417;SDS011;65250;47.602;19.002;2023-04-24T12:36:10;8.80;;;6.20;;
76417;SDS011;65250;47.602;19.002;2023-04-24T12:38:38;8.20;;;6.07;;
76417;SDS011;65250;47.602;19.002;2023-04-24T12:41:13;14.82;;;7.07;;
76417;SDS011;65250;47.602;19.002;2023-04-24T12:43:53;8.03;;;5.90;;
76417;SDS011;65250;47.602;19.002;2023-04-24T12:46:20;8.25;;;6.13;;
76417;SDS011;65250;47.602;19.002;2023-04-24T12:48:48;7.55;;;6.10;;
76417;SDS011;65250;47.602;19.002;2023-04-24T12:51:15;8.73;;;6.00;;
76417;SDS011;65250;47.602;19.002;2023-04-24T12:53:41;6.18;;;5.18;;
76417;SDS011;65250;47.602;19.002;2023-04-24T12:56:08;11.27;;;6.10;;
76417;SDS011;65250;47.602;19.002;2023-04-24T12:58:35;9.90;;;5.10;;
76417;SDS011;65250;47.602;19.002;2023-04-24T13:01:02;7.68;;;5.13;;
76417;SDS011;65250;47.602;19.002;2023-04-24T13:03:29;5.47;;;4.10;;
76417;SDS011;65250;47.602;19.002;2023-04-24T13:05:56;5.65;;;4.30;;
76417;SDS011;65250;47.602;19.002;2023-04-24T13:08:23;7.37;;;4.00;;
76417;SDS011;65250;47.602;19.002;2023-04-24T13:10:50;5.60;;;4.13;;
76417;SDS011;65250;47.602;19.002;2023-04-24T13:13:18;4.32;;;3.90;;
76417;SDS011;65250;47.602;19.002;2023-04-24T13:15:45;6.93;;;4.40;;
76417;SDS011;65250;47.602;19.002;2023-04-24T13:18:11;9.77;;;4.28;;
76417;SDS011;65250;47.602;19.002;2023-04-24T13:20:38;5.10;;;3.83;;
76417;SDS011;65250;47.602;19.002;2023-04-24T13:23:07;9.48;;;4.57;;
76417;SDS011;65250;47.602;19.002;2023-04-24T13:25:34;8.98;;;4.13;;
76417;SDS011;65250;47.602;19.002;2023-04-24T13:28:04;4.20;;;3.22;;
76417;SDS011;65250;47.602;19.002;2023-04-24T13:30:31;5.35;;;3.60;;
76417;SDS011;65250;47.602;19.002;2023-04-24T13:32:58;4.93;;;3.60;;
76417;SDS011;65250;47.602;19.002;2023-04-24T13:35:25;4.60;;;3.53;;
76417;SDS011;65250;47.602;19.002;2023-04-24T13:37:52;3.53;;;3.20;;
76417;SDS011;65250;47.602;19.002;2023-04-24T13:40:18;6.05;;;3.35;;
76417;SDS011;65250;47.602;19.002;2023-04-24T13:42:45;5.65;;;3.58;;
76417;SDS011;65250;47.602;19.002;2023-04-24T13:45:12;5.47;;;3.50;;
76417;SDS011;65250;47.602;19.002;2023-04-24T13:47:50;8.65;;;4.40;;
76417;SDS011;65250;47.602;19.002;2023-04-24T13:50:19;5.75;;;3.80;;
76417;SDS011;65250;47.602;19.002;2023-04-24T13:52:46;5.63;;;3.70;;
76417;SDS011;65250;47.602;19.002;2023-04-24T13:55:13;4.75;;;4.00;;
76417;SDS011;65250;47.602;19.002;2023-04-24T13:57:40;5.23;;;4.40;;
76417;SDS011;65250;47.602;19.002;2023-04-24T14:00:07;6.50;;;4.10;;
76417;SDS011;65250;47.602;19.002;2023-04-24T14:02:36;7.88;;;4.72;;
76417;SDS011;65250;47.602;19.002;2023-04-24T14:05:04;6.10;;;4.53;;
76417;SDS011;65250;47.602;19.002;2023-04-24T14:07:31;4.97;;;3.90;;
76417;SDS011;65250;47.602;19.002;2023-04-24T14:09:58;5.90;;;4.83;;
76417;SDS011;65250;47.602;19.002;2023-04-24T14:12:25;5.10;;;4.18;;
76417;SDS011;65250;47.602;19.002;2023-04-24T14:14:52;5.45;;;4.35;;
76417;SDS011;65250;47.602;19.002;2023-04-24T14:17:19;6.93;;;5.20;;
76417;SDS011;65250;47.602;19.002;2023-04-24T14:19:46;7.32;;;4.57;;
76417;SDS011;65250;47.602;19.002;2023-04-24T14:22:13;7.50;;;5.20;;
76417;SDS011;65250;47.602;19.002;2023-04-24T14:24:39;5.95;;;4.85;;
76417;SDS011;65250;47.602;19.002;2023-04-24T14:27:06;5.32;;;4.78;;
76417;SDS011;65250;47.602;19.002;2023-04-24T14:29:33;5.68;;;4.80;;
76417;SDS011;65250;47.602;19.002;2023-04-24T14:32:00;8.63;;;5.18;;
76417;SDS011;65250;47.602;19.002;2023-04-24T14:34:27;5.80;;;5.20;;
76417;SDS011;65250;47.602;19.002;2023-04-24T14:36:54;6.60;;;5.32;;
76417;SDS011;65250;47.602;19.002;2023-04-24T14:39:21;8.40;;;5.32;;
76417;SDS011;65250;47.602;19.002;2023-04-24T14:41:48;8.93;;;5.63;;
76417;SDS011;65250;47.602;19.002;2023-04-24T14:44:14;6.88;;;4.80;;
76417;SDS011;65250;47.602;19.002;2023-04-24T14:46:42;5.90;;;5.17;;
76417;SDS011;65250;47.602;19.002;2023-04-24T14:49:09;7.32;;;5.90;;
76417;SDS011;65250;47.602;19.002;2023-04-24T14:51:36;6.40;;;5.47;;